Terminal Aerodrome Forecast
Issued by NWS Shreveport, LA

Home | Current Version | Previous Version | Text Only | Print | Product List | Glossary On
Versions: 1 2 3 4 5 6 7 8 9 10 11 12 13 14 15 16 17 18 19 20 21
000
FTUS44 KSHV 172154 AAA
TAFGGG
TAF AMD
KGGG 172154Z 1722/1818 VRB05KT 3SM -RA BR OVC004
     FM180000 03005KT 5SM BR BKN010 BKN025 OVC250
      TEMPO 1802/1804 4SM BR BKN009 OVC035
     FM180400 06003KT 3SM BR BKN003
     FM181000 10006KT 4SM BR OVC007
     FM181500 12008KT 2SM BR OVC003=

USA.gov is the U.S. government's official web portal to all federal, state and local government web resources and services.